Time;durP1;ratioP1;P1;durP2;ratioP2;P2;SDS_P1;SDS_P2;PMS_P1;PMS_P2;Temp;Humidity;BMP_temperature;BMP_pressure;BME280_temperature;BME280_humidity;BME280_pressure;Samples;Min_cycle;Max_cycle;Signal;HPM_P1;HPM_P2
2023/01/01 00:01:12;;;;;;;15.07;2.88;;;14.90;99.90;;;;;;5058795;28;20033;-70
2023/01/01 00:03:38;;;;;;;12.85;2.63;;;14.90;99.90;;;;;;5058283;28;20017;-69
2023/01/01 00:06:13;;;;;;;12.50;2.72;;;14.80;99.90;;;;;;5040247;28;20089;-69
2023/01/01 00:08:39;;;;;;;18.08;3.05;;;14.90;99.90;;;;;;5058453;28;20025;-69
2023/01/01 00:11:07;;;;;;;16.17;3.15;;;14.90;99.90;;;;;;5058127;28;20049;-69
2023/01/01 00:13:34;;;;;;;14.93;3.40;;;14.80;99.90;;;;;;5040201;28;20103;-69
2023/01/01 00:16:07;;;;;;;16.08;3.28;;;14.80;99.90;;;;;;5058342;28;20033;-69
2023/01/01 00:18:33;;;;;;;13.02;3.00;;;14.80;99.90;;;;;;5057885;28;20024;-69
2023/01/01 00:21:06;;;;;;;17.27;2.85;;;14.80;99.90;;;;;;5058093;28;20040;-69
2023/01/01 00:23:33;;;;;;;11.25;2.70;;;14.80;99.90;;;;;;5057744;28;20071;-69
2023/01/01 00:25:59;;;;;;;12.05;2.53;;;14.80;99.90;;;;;;5057962;28;20108;-69
2023/01/01 00:28:25;;;;;;;15.48;3.25;;;14.80;99.90;;;;;;5039759;28;20056;-70
2023/01/01 00:30:51;;;;;;;13.07;3.10;;;14.80;99.90;;;;;;5057893;28;20029;-69
2023/01/01 00:33:16;;;;;;;12.10;2.92;;;14.70;99.90;;;;;;5039632;28;20432;-69
2023/01/01 00:35:42;;;;;;;15.15;3.20;;;14.80;99.90;;;;;;5057852;28;20025;-70
2023/01/01 00:38:08;;;;;;;11.93;3.63;;;14.70;99.90;;;;;;5057677;28;20358;-69
2023/01/01 00:40:33;;;;;;;15.57;3.60;;;14.70;99.90;;;;;;5039777;28;20056;-69
2023/01/01 00:42:59;;;;;;;13.18;3.72;;;14.70;99.90;;;;;;5057502;28;20033;-70
2023/01/01 00:45:24;;;;;;;9.20;2.65;;;14.70;99.90;;;;;;5057692;28;20021;-70
2023/01/01 00:47:52;;;;;;;14.77;3.33;;;14.70;99.90;;;;;;5057205;28;20100;-69
2023/01/01 00:50:19;;;;;;;13.23;2.95;;;14.70;99.90;;;;;;5057046;28;20029;-69
2023/01/01 00:52:44;;;;;;;13.52;3.05;;;14.70;99.90;;;;;;5057326;28;20048;-69
2023/01/01 00:55:10;;;;;;;12.50;2.65;;;14.70;99.90;;;;;;5057295;28;20432;-69
2023/01/01 00:57:36;;;;;;;10.57;2.55;;;14.70;99.90;;;;;;5057457;28;20392;-69
2023/01/01 01:00:04;;;;;;;12.85;2.55;;;14.70;99.90;;;;;;5057524;28;20051;-69
2023/01/01 01:02:29;;;;;;;11.45;2.78;;;14.60;99.90;;;;;;5057228;28;20092;-69
2023/01/01 01:04:55;;;;;;;14.65;3.28;;;14.60;99.90;;;;;;5057494;28;20511;-70
2023/01/01 01:07:20;;;;;;;15.80;2.88;;;14.60;99.90;;;;;;5057329;28;20021;-69
2023/01/01 01:09:46;;;;;;;17.65;3.55;;;14.60;99.90;;;;;;5039220;28;20489;-69
2023/01/01 01:12:12;;;;;;;13.35;3.90;;;14.60;99.90;;;;;;5057041;28;20115;-68
2023/01/01 01:14:37;;;;;;;17.98;3.55;;;14.60;99.90;;;;;;5057361;28;20056;-69
2023/01/01 01:17:03;;;;;;;15.45;2.70;;;14.60;99.90;;;;;;5039177;28;20032;-70
2023/01/01 01:19:28;;;;;;;10.23;2.40;;;14.60;99.90;;;;;;5057386;28;20041;-69
2023/01/01 01:21:54;;;;;;;17.00;7.22;;;14.60;99.90;;;;;;5056981;28;20033;-69
2023/01/01 01:24:20;;;;;;;18.05;5.80;;;14.60;99.90;;;;;;5057096;28;20025;-70
2023/01/01 01:26:45;;;;;;;13.43;3.40;;;14.60;99.90;;;;;;5057046;28;20068;-70
2023/01/01 01:29:11;;;;;;;13.95;3.03;;;14.60;99.90;;;;;;5057417;28;20021;-69
2023/01/01 01:31:37;;;;;;;8.25;2.70;;;14.60;99.90;;;;;;5056951;28;20083;-69
2023/01/01 01:34:03;;;;;;;13.93;3.40;;;14.60;99.90;;;;;;5057172;28;20031;-69
2023/01/01 01:36:29;;;;;;;13.23;3.25;;;14.60;99.90;;;;;;5056828;28;20028;-70
2023/01/01 01:38:55;;;;;;;12.05;2.25;;;14.50;99.90;;;;;;5056866;28;20028;-69
2023/01/01 01:41:23;;;;;;;10.88;2.70;;;14.60;99.90;;;;;;5056748;28;20111;-69
2023/01/01 01:44:01;;;;;;;12.38;2.90;;;14.60;99.90;;;;;;5056960;28;20013;-69
2023/01/01 01:46:41;;;;;;;12.50;2.50;;;14.60;99.90;;;;;;5038617;28;20477;-67
2023/01/01 01:49:30;;;;;;;11.85;2.78;;;14.60;99.90;;;;;;5057102;28;20047;-70
2023/01/01 01:51:59;;;;;;;14.18;2.67;;;14.50;99.90;;;;;;5046595;28;20037;-69
2023/01/01 01:54:26;;;;;;;16.08;2.88;;;14.50;99.90;;;;;;5056563;28;20525;-70
2023/01/01 01:57:04;;;;;;;13.90;3.00;;;14.50;99.90;;;;;;5038728;28;20031;-69
2023/01/01 01:59:33;;;;;;;11.60;2.50;;;14.40;99.90;;;;;;5056576;28;20029;-69
2023/01/01 02:02:00;;;;;;;12.20;2.60;;;14.40;99.90;;;;;;5060330;28;20029;-69
2023/01/01 02:04:26;;;;;;;14.27;2.88;;;14.30;99.90;;;;;;5060463;28;20039;-70
2023/01/01 02:06:53;;;;;;;11.35;2.35;;;14.30;99.90;;;;;;5060688;28;20076;-69
2023/01/01 02:09:19;;;;;;;15.25;2.80;;;14.30;99.90;;;;;;5060284;28;20017;-69
2023/01/01 02:11:45;;;;;;;10.55;2.58;;;14.20;99.90;;;;;;5060326;28;20479;-69
2023/01/01 02:14:11;;;;;;;14.43;2.92;;;14.20;99.90;;;;;;5042399;28;20025;-69
2023/01/01 02:16:45;;;;;;;10.15;2.90;;;14.10;99.90;;;;;;5060539;28;20037;-69
2023/01/01 02:19:24;;;;;;;11.60;2.50;;;14.10;99.90;;;;;;5060494;28;20025;-69
2023/01/01 02:22:13;;;;;;;10.70;2.45;;;14.10;99.90;;;;;;5060129;28;20029;-70
2023/01/01 02:24:55;;;;;;;9.13;2.05;;;14.10;99.90;;;;;;5060362;28;20029;-69
2023/01/01 02:27:54;;;;;;;10.02;1.80;;;14.10;99.90;;;;;;5060484;28;20020;-69
2023/01/01 02:30:20;;;;;;;8.05;1.60;;;14.00;99.90;;;;;;5019361;28;20041;-70
2023/01/01 02:33:08;;;;;;;7.18;1.77;;;13.80;99.90;;;;;;5060022;28;20473;-69
2023/01/01 02:35:45;;;;;;;4.97;1.42;;;14.00;99.90;;;;;;5042040;28;20036;-69
2023/01/01 02:38:42;;;;;;;7.93;1.80;;;14.00;99.90;;;;;;5059747;28;20400;-70
2023/01/01 02:41:18;;;;;;;10.68;1.70;;;13.90;99.90;;;;;;5059974;28;20028;-70
2023/01/01 02:43:44;;;;;;;5.55;1.40;;;13.90;99.90;;;;;;5059999;28;20029;-69
2023/01/01 02:46:11;;;;;;;8.68;1.48;;;13.90;99.90;;;;;;5059848;28;20017;-69
2023/01/01 02:48:39;;;;;;;6.85;1.85;;;13.90;99.90;;;;;;5059759;28;20017;-70
2023/01/01 02:51:29;;;;;;;8.13;1.83;;;13.90;99.90;;;;;;5059805;28;20025;-70
2023/01/01 02:54:16;;;;;;;4.50;1.13;;;13.90;99.90;;;;;;5041588;28;20481;-70
2023/01/01 02:56:57;;;;;;;8.27;1.60;;;13.90;99.90;;;;;;5060160;28;20064;-70
2023/01/01 03:02:31;;;;;;;4.60;1.20;;;13.90;99.90;;;;;;5059355;28;20091;-69
2023/01/01 03:05:32;;;;;;;8.10;1.77;;;14.00;99.90;;;;;;5059566;28;20029;-69
2023/01/01 03:08:07;;;;;;;10.07;1.90;;;14.00;99.90;;;;;;5048602;28;20029;-69
2023/01/01 03:10:51;;;;;;;9.30;2.08;;;14.00;99.90;;;;;;5041178;28;20044;-69
2023/01/01 03:13:19;;;;;;;8.65;2.03;;;14.00;99.90;;;;;;5058563;28;20021;-69
2023/01/01 03:16:20;;;;;;;9.73;2.22;;;14.00;99.90;;;;;;5059150;28;20021;-69
2023/01/01 03:19:10;;;;;;;14.35;2.45;;;14.00;99.90;;;;;;5045409;28;20116;-69
2023/01/01 03:21:52;;;;;;;11.55;2.35;;;14.00;99.90;;;;;;5059427;28;20055;-68
2023/01/01 03:24:25;;;;;;;11.77;2.58;;;14.00;99.90;;;;;;5058861;28;20021;-70
2023/01/01 03:26:55;;;;;;;12.73;2.40;;;14.00;99.90;;;;;;5059036;28;20025;-69
2023/01/01 03:29:23;;;;;;;9.80;2.33;;;13.90;99.90;;;;;;5059193;28;20056;-67
2023/01/01 03:31:52;;;;;;;10.98;2.33;;;14.00;99.90;;;;;;5040889;28;20033;-69
2023/01/01 03:34:24;;;;;;;12.20;2.10;;;14.00;99.90;;;;;;5059076;28;20047;-69
2023/01/01 03:36:55;;;;;;;12.32;2.15;;;14.00;99.90;;;;;;5058682;28;20028;-69
2023/01/01 03:39:40;;;;;;;11.93;2.10;;;14.00;99.90;;;;;;5058821;28;20013;-69
2023/01/01 03:42:32;;;;;;;6.55;1.45;;;13.90;99.90;;;;;;5040784;28;20033;-69
2023/01/01 03:45:04;;;;;;;11.40;2.58;;;13.90;99.90;;;;;;5058621;28;20021;-70
2023/01/01 03:47:30;;;;;;;9.63;2.03;;;14.00;99.90;;;;;;5058771;28;20424;-69
2023/01/01 03:49:57;;;;;;;8.05;1.67;;;13.90;99.90;;;;;;5040667;28;20021;-69
2023/01/01 03:52:51;;;;;;;11.00;1.63;;;13.90;99.90;;;;;;5040710;28;20501;-69
2023/01/01 03:55:35;;;;;;;9.75;1.90;;;13.90;99.90;;;;;;5058405;28;20021;-69
2023/01/01 03:58:13;;;;;;;10.32;2.22;;;13.90;99.90;;;;;;5058463;28;20039;-69
2023/01/01 04:00:50;;;;;;;12.50;2.20;;;13.90;99.90;;;;;;5058279;28;20392;-69
2023/01/01 04:03:27;;;;;;;9.88;1.77;;;13.90;99.90;;;;;;5040375;28;20108;-69
2023/01/01 04:05:53;;;;;;;13.07;2.13;;;13.90;99.90;;;;;;5058233;28;20053;-69
2023/01/01 04:08:19;;;;;;;8.00;1.58;;;13.90;99.90;;;;;;5040235;28;20028;-70
2023/01/01 04:10:50;;;;;;;12.60;2.30;;;13.80;99.90;;;;;;5057971;28;20080;-69
2023/01/01 04:13:16;;;;;;;9.48;2.10;;;13.80;99.90;;;;;;5040256;28;20460;-69
2023/01/01 04:15:43;;;;;;;10.13;2.03;;;13.80;99.90;;;;;;5057903;28;20049;-69
2023/01/01 04:18:09;;;;;;;9.40;1.90;;;13.80;99.90;;;;;;5058137;28;20067;-69
2023/01/01 04:20:34;;;;;;;12.57;2.22;;;13.80;99.90;;;;;;5039952;28;20021;-69
2023/01/01 04:23:01;;;;;;;7.43;1.83;;;13.80;99.90;;;;;;5057731;28;20032;-69
2023/01/01 04:25:27;;;;;;;15.38;2.53;;;13.80;99.90;;;;;;5057775;28;20091;-69
2023/01/01 04:27:53;;;;;;;10.55;2.05;;;13.80;99.90;;;;;;5058278;28;20100;-69
2023/01/01 04:30:19;;;;;;;8.57;2.15;;;13.80;99.90;;;;;;5057742;28;20555;-69
2023/01/01 04:32:45;;;;;;;11.80;1.88;;;13.80;99.90;;;;;;5057831;28;20097;-69
2023/01/01 04:35:12;;;;;;;10.18;2.10;;;13.70;99.90;;;;;;5039769;28;20558;-70
2023/01/01 04:37:39;;;;;;;10.40;2.03;;;13.70;99.90;;;;;;5047180;28;20025;-69
2023/01/01 04:40:06;;;;;;;10.85;2.28;;;13.70;99.90;;;;;;5057392;28;20115;-69
2023/01/01 04:42:32;;;;;;;8.80;1.75;;;13.70;99.90;;;;;;5057620;28;20067;-69
2023/01/01 04:44:57;;;;;;;10.35;1.70;;;13.70;99.90;;;;;;5057552;28;20025;-69
2023/01/01 04:47:25;;;;;;;11.60;2.25;;;13.70;99.90;;;;;;5057549;28;20025;-69
2023/01/01 04:49:51;;;;;;;7.90;1.52;;;13.70;99.90;;;;;;5039500;28;20046;-70
2023/01/01 04:52:17;;;;;;;7.18;2.13;;;13.70;99.90;;;;;;5057595;28;20096;-70
2023/01/01 04:54:43;;;;;;;5.70;1.27;;;13.70;99.90;;;;;;5039391;28;20060;-69
2023/01/01 04:57:08;;;;;;;8.73;1.92;;;13.60;99.90;;;;;;5057462;28;20032;-70
2023/01/01 04:59:34;;;;;;;7.75;1.77;;;13.70;99.90;;;;;;5057492;28;20033;-69
2023/01/01 05:02:00;;;;;;;11.02;2.00;;;13.70;99.90;;;;;;5057154;28;20043;-70
2023/01/01 05:04:25;;;;;;;7.50;1.55;;;13.60;99.90;;;;;;5039402;28;20052;-70
2023/01/01 05:06:51;;;;;;;8.63;1.52;;;13.60;99.90;;;;;;5057347;28;20453;-69
2023/01/01 05:09:16;;;;;;;10.57;1.92;;;13.60;99.90;;;;;;5039115;28;20052;-70
2023/01/01 05:11:42;;;;;;;9.23;1.67;;;13.60;99.90;;;;;;5057134;28;20084;-69
2023/01/01 05:14:08;;;;;;;8.88;1.98;;;13.50;99.90;;;;;;5039204;28;20029;-69
2023/01/01 05:16:35;;;;;;;13.30;2.40;;;13.50;99.90;;;;;;5039286;28;20037;-70
2023/01/01 05:19:01;;;;;;;10.38;2.08;;;13.50;99.90;;;;;;5057177;28;20389;-70
2023/01/01 05:21:32;;;;;;;11.85;2.22;;;13.50;99.90;;;;;;5057142;28;20024;-70
2023/01/01 05:24:00;;;;;;;11.88;2.22;;;13.50;99.90;;;;;;5056825;28;20021;-69
2023/01/01 05:26:28;;;;;;;11.38;1.95;;;13.50;99.90;;;;;;5039298;28;20037;-69
2023/01/01 05:28:55;;;;;;;15.82;2.33;;;13.50;99.90;;;;;;5039188;28;20044;-69
2023/01/01 05:31:23;;;;;;;12.50;1.98;;;13.40;99.90;;;;;;5038918;28;20493;-69
2023/01/01 05:33:51;;;;;;;10.35;1.60;;;13.50;99.90;;;;;;5057213;28;20108;-69
2023/01/01 05:36:22;;;;;;;8.75;1.85;;;13.40;99.90;;;;;;5059744;28;20095;-70
2023/01/01 05:38:47;;;;;;;10.50;1.98;;;13.40;99.90;;;;;;5061179;28;20031;-69
2023/01/01 05:41:15;;;;;;;8.85;2.05;;;13.40;99.90;;;;;;5061133;28;20021;-70
2023/01/01 05:43:41;;;;;;;8.32;1.50;;;13.40;99.90;;;;;;5061356;28;20025;-69
2023/01/01 05:46:19;;;;;;;7.57;1.63;;;13.40;99.90;;;;;;5060933;28;20021;-69
2023/01/01 05:48:45;;;;;;;7.38;1.88;;;13.40;99.90;;;;;;5061401;28;20013;-69
2023/01/01 05:51:21;;;;;;;8.85;1.55;;;13.40;99.90;;;;;;5042903;28;20048;-69
2023/01/01 05:53:47;;;;;;;8.07;1.70;;;13.40;99.90;;;;;;5060701;28;20499;-70
2023/01/01 05:56:15;;;;;;;5.60;1.45;;;13.40;99.90;;;;;;5060802;28;20029;-70
2023/01/01 05:58:41;;;;;;;7.65;1.92;;;13.30;99.90;;;;;;5042834;28;20485;-69
2023/01/01 06:01:13;;;;;;;11.50;2.25;;;13.30;99.90;;;;;;5060719;28;20103;-69
2023/01/01 06:03:39;;;;;;;9.65;1.83;;;13.30;99.90;;;;;;5060742;28;20449;-69
2023/01/01 06:06:07;;;;;;;10.35;2.17;;;13.30;99.90;;;;;;5060453;28;20092;-69
2023/01/01 06:08:33;;;;;;;8.05;1.90;;;13.20;99.90;;;;;;5042462;28;20032;-69
2023/01/01 06:11:04;;;;;;;11.15;2.22;;;13.20;99.90;;;;;;5060297;28;20041;-69
2023/01/01 06:13:30;;;;;;;10.10;1.98;;;13.20;99.90;;;;;;5060532;28;20024;-70
2023/01/01 06:15:57;;;;;;;11.05;1.90;;;13.10;99.90;;;;;;5042241;28;20028;-69
2023/01/01 06:18:23;;;;;;;9.00;1.50;;;13.10;99.90;;;;;;5060303;28;20024;-69
2023/01/01 06:20:50;;;;;;;10.23;1.77;;;13.10;99.90;;;;;;5042424;28;20617;-69
2023/01/01 06:23:16;;;;;;;10.25;2.20;;;13.10;99.90;;;;;;5042103;28;20024;-69
2023/01/01 06:25:41;;;;;;;9.00;1.90;;;13.10;99.90;;;;;;5060276;28;20031;-69
2023/01/01 06:28:07;;;;;;;11.10;1.63;;;13.10;99.90;;;;;;5060130;28;20507;-69
2023/01/01 06:30:33;;;;;;;7.57;1.90;;;13.10;99.90;;;;;;5060364;28;20023;-69
2023/01/01 06:32:59;;;;;;;8.05;1.48;;;13.10;99.90;;;;;;5059963;28;20060;-69
2023/01/01 06:35:26;;;;;;;6.68;2.03;;;13.10;99.90;;;;;;5060197;28;20112;-69
2023/01/01 06:37:52;;;;;;;8.30;1.85;;;13.10;99.90;;;;;;5059803;28;20078;-69
2023/01/01 06:40:17;;;;;;;12.45;2.17;;;13.10;99.90;;;;;;5060217;28;20080;-69
2023/01/01 06:42:43;;;;;;;8.60;1.75;;;13.00;99.90;;;;;;5041892;28;20053;-69
2023/01/01 06:45:09;;;;;;;8.10;1.65;;;13.00;99.90;;;;;;5060063;28;20027;-69
2023/01/01 06:47:35;;;;;;;4.82;1.10;;;13.10;99.90;;;;;;5058513;28;20025;-69
2023/01/01 06:50:02;;;;;;;8.68;1.65;;;13.10;99.90;;;;;;5060031;28;20464;-70
2023/01/01 06:52:28;;;;;;;7.43;1.88;;;13.10;99.90;;;;;;5059706;28;20033;-69
2023/01/01 06:54:53;;;;;;;8.93;1.88;;;13.10;99.90;;;;;;5059675;28;20520;-69
2023/01/01 06:57:19;;;;;;;6.75;1.30;;;13.10;99.90;;;;;;5059703;28;20029;-69
2023/01/01 06:59:45;;;;;;;8.27;1.92;;;13.10;99.90;;;;;;5041726;28;20527;-69
2023/01/01 07:02:11;;;;;;;8.32;1.73;;;13.10;99.90;;;;;;5059352;28;20029;-69
2023/01/01 07:04:37;;;;;;;8.50;1.50;;;13.10;99.90;;;;;;5059465;28;20027;-69
2023/01/01 07:07:03;;;;;;;7.00;1.27;;;13.10;99.90;;;;;;5059649;28;20085;-70
2023/01/01 07:09:28;;;;;;;8.02;1.70;;;13.10;99.90;;;;;;5059196;28;20389;-69
2023/01/01 07:11:54;;;;;;;7.13;1.60;;;13.10;99.90;;;;;;5041375;28;20056;-69
2023/01/01 07:14:20;;;;;;;6.45;1.55;;;13.10;99.90;;;;;;5059272;28;20385;-69
2023/01/01 07:16:45;;;;;;;6.03;1.50;;;13.10;99.90;;;;;;5059319;28;20091;-69
2023/01/01 07:19:11;;;;;;;8.02;1.42;;;13.10;99.90;;;;;;5059201;28;20057;-69
2023/01/01 07:21:45;;;;;;;8.82;1.90;;;13.20;99.90;;;;;;5059739;28;20159;-69
2023/01/01 07:24:13;;;;;;;5.20;1.40;;;13.10;99.90;;;;;;5041016;28;20028;-69
2023/01/01 07:26:40;;;;;;;6.90;1.40;;;13.10;99.90;;;;;;5041303;28;20025;-69
2023/01/01 07:29:07;;;;;;;5.18;1.60;;;13.20;99.90;;;;;;5041331;28;20075;-69
2023/01/01 07:31:34;;;;;;;5.88;1.30;;;13.10;99.90;;;;;;5058873;28;20029;-69
2023/01/01 07:34:00;;;;;;;4.68;1.05;;;13.20;99.90;;;;;;5059147;28;20036;-69
2023/01/01 07:36:25;;;;;;;7.30;1.20;;;13.20;99.90;;;;;;5058932;28;20029;-69
2023/01/01 07:38:51;;;;;;;5.93;1.30;;;13.20;99.90;;;;;;5058818;28;20025;-69
2023/01/01 07:41:16;;;;;;;6.25;1.23;;;13.20;99.90;;;;;;5041416;28;20025;-69
2023/01/01 07:43:42;;;;;;;3.50;0.90;;;13.20;99.90;;;;;;5058944;28;20029;-70
2023/01/01 07:46:11;;;;;;;4.60;1.05;;;13.20;99.90;;;;;;5058863;28;20025;-70
2023/01/01 07:48:36;;;;;;;4.38;1.02;;;13.20;99.90;;;;;;5058745;28;20048;-69
2023/01/01 07:51:02;;;;;;;4.38;1.02;;;13.10;99.90;;;;;;5058614;28;20032;-69
2023/01/01 07:53:28;;;;;;;3.58;0.90;;;13.10;99.90;;;;;;5058574;28;20025;-69
2023/01/01 07:55:53;;;;;;;5.10;0.95;;;13.10;99.90;;;;;;5040670;28;20025;-69
2023/01/01 07:58:19;;;;;;;5.80;0.77;;;13.10;99.90;;;;;;5058364;28;20373;-70
2023/01/01 08:00:46;;;;;;;5.22;1.00;;;13.00;99.90;;;;;;5058399;28;20025;-70
2023/01/01 08:03:12;;;;;;;4.72;0.88;;;13.10;99.90;;;;;;5058336;28;20048;-69
2023/01/01 08:05:37;;;;;;;4.65;1.10;;;13.00;99.90;;;;;;5040414;28;20025;-70
2023/01/01 08:08:03;;;;;;;4.68;0.90;;;13.00;99.90;;;;;;5040279;28;20021;-69
2023/01/01 08:10:30;;;;;;;4.47;1.05;;;13.00;99.90;;;;;;5040132;28;20382;-69
2023/01/01 08:13:00;;;;;;;3.72;0.75;;;13.00;99.90;;;;;;5058430;28;20029;-69
2023/01/01 08:15:26;;;;;;;4.25;0.70;;;13.00;99.90;;;;;;5058058;28;20397;-69
2023/01/01 08:17:58;;;;;;;6.90;1.20;;;13.00;99.90;;;;;;5040173;28;20025;-69
2023/01/01 08:20:25;;;;;;;6.50;1.17;;;12.90;99.90;;;;;;5040083;28;20033;-69
2023/01/01 08:22:51;;;;;;;5.45;0.90;;;12.90;99.90;;;;;;5057928;28;20017;-70
2023/01/01 08:25:17;;;;;;;2.83;1.08;;;12.90;99.90;;;;;;5058019;28;20083;-70
2023/01/01 08:27:42;;;;;;;4.82;0.90;;;12.90;99.90;;;;;;5040134;28;20028;-69
2023/01/01 08:30:10;;;;;;;3.88;1.00;;;12.90;99.90;;;;;;5040014;28;20458;-69
2023/01/01 08:32:36;;;;;;;5.75;1.48;;;12.90;99.90;;;;;;5039817;28;20028;-69
2023/01/01 08:35:01;;;;;;;5.32;1.60;;;12.90;99.90;;;;;;5057824;28;20029;-69
2023/01/01 08:37:27;;;;;;;8.15;1.30;;;12.90;99.90;;;;;;5057701;28;20036;-69
2023/01/01 08:39:53;;;;;;;3.55;1.10;;;12.90;99.90;;;;;;5057507;28;20033;-69
2023/01/01 08:42:18;;;;;;;4.05;1.17;;;12.90;99.90;;;;;;5057826;28;20091;-70
2023/01/01 08:44:44;;;;;;;7.38;1.25;;;12.90;99.90;;;;;;5039711;28;20055;-70
2023/01/01 08:47:21;;;;;;;14.75;7.32;;;13.00;99.90;;;;;;5039795;28;20020;-69
2023/01/01 08:49:47;;;;;;;20.77;9.13;;;13.00;99.90;;;;;;5057513;28;20076;-69
2023/01/01 08:52:13;;;;;;;4.50;0.98;;;13.00;99.90;;;;;;5057662;28;20037;-70
2023/01/01 08:54:39;;;;;;;26.83;15.60;;;13.00;99.90;;;;;;5057122;28;20032;-69
2023/01/01 08:57:05;;;;;;;6.78;2.45;;;13.00;99.90;;;;;;5057535;28;20048;-69
2023/01/01 08:59:30;;;;;;;5.63;1.98;;;13.00;99.90;;;;;;5039368;28;20040;-70
2023/01/01 09:01:56;;;;;;;5.13;1.98;;;13.10;99.90;;;;;;5057062;28;20025;-69
2023/01/01 09:04:22;;;;;;;5.40;1.65;;;13.10;99.90;;;;;;5057259;28;20034;-70
2023/01/01 09:06:47;;;;;;;19.80;9.18;;;13.10;99.90;;;;;;5057100;28;20036;-69
2023/01/01 09:09:13;;;;;;;7.68;1.80;;;13.20;99.90;;;;;;5038868;28;20035;-69
2023/01/01 09:11:38;;;;;;;5.28;1.33;;;13.20;99.90;;;;;;5056864;28;20048;-69
2023/01/01 09:14:04;;;;;;;8.10;2.17;;;13.20;99.90;;;;;;5057361;28;20029;-70
2023/01/01 09:16:30;;;;;;;6.40;1.80;;;13.20;99.90;;;;;;5039326;28;20021;-69
2023/01/01 09:18:55;;;;;;;7.45;2.13;;;13.20;99.90;;;;;;5057217;28;20036;-69
2023/01/01 09:21:21;;;;;;;6.05;1.48;;;13.30;99.90;;;;;;5057107;28;20044;-69
2023/01/01 09:23:47;;;;;;;5.72;1.90;;;13.30;99.90;;;;;;5056863;28;20071;-69
2023/01/01 09:26:12;;;;;;;7.97;2.95;;;13.30;99.90;;;;;;5057153;28;20044;-69
2023/01/01 09:28:38;;;;;;;8.43;2.67;;;13.30;99.90;;;;;;5057049;28;20047;-70
2023/01/01 09:31:07;;;;;;;7.82;1.60;;;13.30;99.90;;;;;;5039181;28;20112;-69
2023/01/01 09:33:33;;;;;;;5.47;1.33;;;13.30;99.90;;;;;;5056987;28;20064;-69
2023/01/01 09:36:15;;;;;;;8.77;1.45;;;13.30;99.90;;;;;;5057031;28;20013;-69
2023/01/01 09:38:41;;;;;;;6.55;1.40;;;13.30;99.90;;;;;;5026033;28;20026;-69
2023/01/01 09:41:43;;;;;;;5.60;1.33;;;13.30;99.90;;;;;;5039068;28;20023;-69
2023/01/01 09:44:40;;;;;;;3.75;1.00;;;13.30;99.90;;;;;;5057159;28;20028;-69
2023/01/01 09:47:17;;;;;;;4.47;1.63;;;13.40;99.90;;;;;;5056853;28;20017;-69
2023/01/01 09:49:48;;;;;;;11.60;5.18;;;13.40;99.90;;;;;;5056871;28;20021;-69
2023/01/01 09:52:15;;;;;;;7.50;2.15;;;13.40;99.90;;;;;;5057274;28;20112;-69
2023/01/01 09:54:59;;;;;;;7.05;1.83;;;13.40;99.90;;;;;;5056481;28;20416;-69
2023/01/01 09:57:29;;;;;;;5.88;1.58;;;13.50;99.90;;;;;;5056999;28;20489;-69
2023/01/01 09:59:57;;;;;;;7.60;2.72;;;13.50;99.90;;;;;;5056893;28;20032;-69
2023/01/01 10:02:47;;;;;;;13.40;6.57;;;13.50;99.90;;;;;;5056538;28;20083;-69
2023/01/01 10:05:43;;;;;;;10.73;3.70;;;13.50;99.90;;;;;;5057309;28;20484;-69
2023/01/01 10:08:14;;;;;;;6.10;2.13;;;13.40;99.90;;;;;;5056925;28;20425;-69
2023/01/01 10:10:48;;;;;;;7.25;1.70;;;13.50;99.90;;;;;;5056484;28;20044;-69
2023/01/01 10:13:23;;;;;;;9.20;3.13;;;13.40;99.90;;;;;;5038736;28;20389;-69
2023/01/01 10:16:02;;;;;;;11.48;3.90;;;13.50;99.90;;;;;;5056535;28;20021;-69
2023/01/01 10:18:36;;;;;;;9.98;2.90;;;13.40;99.90;;;;;;5056522;28;20028;-69
2023/01/01 10:21:15;;;;;;;6.47;2.78;;;13.40;99.90;;;;;;5057256;28;20037;-69
2023/01/01 10:23:48;;;;;;;10.07;2.10;;;13.50;99.90;;;;;;5060081;28;20017;-69
2023/01/01 10:26:22;;;;;;;9.35;1.80;;;13.50;99.90;;;;;;5060415;28;20041;-69
2023/01/01 10:29:00;;;;;;;7.05;1.88;;;13.50;99.90;;;;;;5060218;28;20373;-69
2023/01/01 10:31:41;;;;;;;6.28;1.55;;;13.50;99.90;;;;;;5060339;28;20056;-69
2023/01/01 10:34:19;;;;;;;6.50;1.35;;;13.50;99.90;;;;;;5060144;28;20033;-69
2023/01/01 10:36:45;;;;;;;5.07;1.40;;;13.50;99.90;;;;;;5059959;28;20496;-69
2023/01/01 10:39:18;;;;;;;6.57;1.25;;;13.60;99.90;;;;;;5041894;28;20021;-69
2023/01/01 10:41:44;;;;;;;7.37;1.20;;;13.60;99.90;;;;;;5059883;28;20432;-69
2023/01/01 10:44:17;;;;;;;4.80;1.45;;;13.60;99.90;;;;;;5059997;28;20262;-69
2023/01/01 10:46:52;;;;;;;4.32;1.30;;;13.60;99.90;;;;;;5059901;28;20124;-69
2023/01/01 10:49:18;;;;;;;6.82;2.50;;;13.60;99.90;;;;;;5059843;28;20562;-70
2023/01/01 10:51:46;;;;;;;6.55;1.60;;;13.60;99.90;;;;;;5060157;28;20053;-69
2023/01/01 10:54:34;;;;;;;6.30;1.67;;;13.60;99.90;;;;;;5059438;28;20033;-69
2023/01/01 10:57:13;;;;;;;4.07;1.30;;;13.60;99.90;;;;;;5041684;28;20036;-69
2023/01/01 10:59:40;;;;;;;9.63;1.75;;;13.60;99.90;;;;;;5059544;28;20029;-69
2023/01/01 11:02:27;;;;;;;3.80;1.10;;;13.60;99.90;;;;;;5041492;28;20028;-69
2023/01/01 11:05:18;;;;;;;5.47;1.42;;;13.60;99.90;;;;;;5059662;28;20044;-69
2023/01/01 11:07:44;;;;;;;8.18;2.17;;;13.60;99.90;;;;;;5059191;28;20021;-69
2023/01/01 11:10:24;;;;;;;6.38;1.75;;;13.60;99.90;;;;;;5059615;28;20025;-70
2023/01/01 11:12:52;;;;;;;4.50;1.40;;;13.60;99.90;;;;;;5041555;28;20029;-69
2023/01/01 11:15:40;;;;;;;3.63;1.00;;;13.60;99.90;;;;;;5059275;28;20021;-69
2023/01/01 11:18:27;;;;;;;4.10;1.38;;;13.50;99.90;;;;;;5059261;28;20032;-69
2023/01/01 11:20:59;;;;;;;4.30;1.48;;;13.60;99.90;;;;;;5045182;28;20051;-69
2023/01/01 11:23:28;;;;;;;5.30;1.75;;;13.40;99.90;;;;;;5058947;28;20037;-69
2023/01/01 11:26:17;;;;;;;6.50;1.58;;;13.60;99.90;;;;;;5059222;28;20520;-70
2023/01/01 11:29:17;;;;;;;4.00;1.30;;;13.60;99.90;;;;;;5048459;28;20043;-69
2023/01/01 11:31:46;;;;;;;5.15;1.38;;;13.50;99.90;;;;;;5058376;28;20425;-69
2023/01/01 11:34:33;;;;;;;4.45;1.20;;;13.50;99.90;;;;;;5058412;28;20021;-69
2023/01/01 11:37:17;;;;;;;6.47;1.48;;;13.50;99.90;;;;;;5048455;28;20083;-69
2023/01/01 11:39:46;;;;;;;6.35;1.63;;;13.60;99.90;;;;;;5058672;28;20028;-70
2023/01/01 11:42:29;;;;;;;3.33;0.88;;;13.60;99.90;;;;;;5058838;28;20025;-69
2023/01/01 11:44:58;;;;;;;3.35;1.00;;;13.60;99.90;;;;;;5040817;28;20048;-70
2023/01/01 11:47:34;;;;;;;4.32;1.38;;;13.60;99.90;;;;;;5058884;28;20028;-70
2023/01/01 11:50:16;;;;;;;3.17;1.20;;;13.60;99.90;;;;;;5058686;28;20029;-69
2023/01/01 11:53:23;;;;;;;7.25;1.60;;;13.60;99.90;;;;;;5058463;28;20092;-69
2023/01/01 11:56:03;;;;;;;9.60;4.05;;;13.50;99.90;;;;;;5039914;28;20512;-69
2023/01/01 11:58:56;;;;;;;6.22;1.95;;;13.60;99.90;;;;;;5058707;28;20021;-69
2023/01/01 12:01:27;;;;;;;4.97;1.98;;;13.50;99.90;;;;;;5058328;28;20021;-69
2023/01/01 12:04:16;;;;;;;4.35;1.17;;;13.50;99.90;;;;;;5040473;28;20021;-70
2023/01/01 12:06:52;;;;;;;5.15;1.42;;;13.50;99.90;;;;;;5039994;28;20068;-69
2023/01/01 12:09:23;;;;;;;5.97;1.17;;;13.40;99.90;;;;;;5058052;28;20163;-69
2023/01/01 12:11:49;;;;;;;4.32;1.00;;;13.40;99.90;;;;;;5058213;28;20049;-70
2023/01/01 12:14:28;;;;;;;6.65;1.35;;;13.40;99.90;;;;;;5058122;28;20035;-69
2023/01/01 12:16:57;;;;;;;5.18;1.25;;;13.30;99.90;;;;;;5058064;28;20025;-70
2023/01/01 12:19:40;;;;;;;3.67;0.90;;;13.30;99.90;;;;;;5040194;28;20037;-69
2023/01/01 12:22:15;;;;;;;4.00;1.20;;;13.30;99.90;;;;;;5058099;28;20083;-69
2023/01/01 12:24:41;;;;;;;2.15;1.02;;;13.20;99.90;;;;;;5057867;28;20032;-69
2023/01/01 12:27:16;;;;;;;4.45;1.33;;;13.20;99.90;;;;;;5057865;28;20055;-69
2023/01/01 12:29:51;;;;;;;5.72;1.67;;;13.20;99.90;;;;;;5057904;28;20056;-70
2023/01/01 12:32:32;;;;;;;4.50;1.02;;;13.20;99.90;;;;;;5039937;28;20027;-69
2023/01/01 12:35:56;;;;;;;3.63;1.02;;;13.20;99.90;;;;;;5057789;28;20410;-69
2023/01/01 12:38:49;;;;;;;6.30;1.88;;;13.20;99.90;;;;;;5013479;28;20041;-69
2023/01/01 12:41:37;;;;;;;3.55;0.90;;;13.10;99.90;;;;;;5057793;28;20029;-69
2023/01/01 12:44:33;;;;;;;2.63;0.77;;;13.10;99.90;;;;;;5039499;28;20021;-69
2023/01/01 12:47:21;;;;;;;1.92;0.95;;;13.10;99.90;;;;;;5057638;28;20025;-69
2023/01/01 12:50:04;;;;;;;2.25;0.82;;;13.10;99.90;;;;;;5057585;28;20021;-69
2023/01/01 12:52:48;;;;;;;1.98;0.80;;;13.10;99.90;;;;;;5057762;28;20061;-69
2023/01/01 12:55:29;;;;;;;1.65;0.70;;;13.10;99.90;;;;;;5057703;28;20501;-70
2023/01/01 12:58:12;;;;;;;2.13;0.80;;;13.20;99.90;;;;;;5057821;28;20033;-69
2023/01/01 13:00:39;;;;;;;1.98;0.93;;;13.20;99.90;;;;;;5039572;28;20104;-69
2023/01/01 13:03:13;;;;;;;1.58;0.85;;;13.10;99.90;;;;;;5057464;28;20031;-69
2023/01/01 13:05:42;;;;;;;2.70;0.80;;;13.10;99.90;;;;;;5057527;28;20385;-69
2023/01/01 13:08:08;;;;;;;3.83;1.00;;;13.10;99.90;;;;;;5056920;28;20029;-69